Tahlequah, OK

6:35 AM CDT on August 05, 2015 (GMT -0500)
Southridge | | Change Station
CLOSE
Current Station
Personal Weather Station
Location: Tahlequah, OK
Elevation: 840 ft
Nearby Weather Stations

Elev 840 ft 35.88 °N, 94.98 °W | Updated 21 seconds ago

Partly Cloudy
Partly Cloudy
75.0 °F
Feels Like 75 °F
N
0.0
Wind Variable Wind from SSW
Gusts 0.0 mph

Today
High -- | Low -- °F
--% Chance of Precip.
Yesterday
High -- | Low -- °F
Precip. -- in
6:30 AM 8:21 PM
Waning Gibbous, 68% visible
Pressure 29.94 in
Visibility 10.0 miles
Clouds Scattered Clouds 9000 ft
Heat Index 75 °F
Dew Point 71 °F
Humidity 87%
Rainfall 0.00 in
Snow Depth Not available.
UV 0.0 out of 12
Pollen 5.20 out of 12
Air Quality Not available.
Flu Activity Not available.
METAR KTQH 051115Z AUTO 00000KT 10SM SCT090 23/20 A2994 RMK AO2

More Conditions Fewer Conditions

Pressure 29.94 in
Visibility 10.0 miles
Clouds Scattered Clouds 9000 ft
Heat Index 75 °F
Dew Point 71 °F
Humidity 87%
Rainfall 0.00 in
Snow Depth Not available.
UV 0.0 out of 12
Pollen 5.20 out of 12
Air Quality Not available.
Flu Activity Not available.
METAR KTQH 051115Z AUTO 00000KT 10SM SCT090 23/20 A2994 RMK AO2

More Conditions Fewer Conditions

Nowcast | as of 4:53 am CDT on August 5, 2015

At 4:53 am...National Weather Service Doppler radar detected widely scattered showers and thunderstorms over Craig and Ottawa counties ...Moving east at 20 mph. Through 6:00 am...widely scattered showers and thunderstorms will continue over Craig and Ottawa counties. Brief heavy rain and dangerous lightning will be possible with these storms. Additional showers and thunderstorms are expected to develop across far northeast Oklahoma and northwest Arkansas through the morning hours. Some of these storms could be severe across far northeast Oklahoma...near the Oklahoma...Kansas state line with quarter size hail and damaging winds.

×

10-Day Weather Forecast

×

Almanac

Astronomy

Aug. 05, 2015 Rise Set
Actual Time
Civil Twilight
Nautical Twilight
Astronomical Twilight
Moon
Length of Visible Light
Length of Day
Tomorrow will be .
, % of the Moon is Illuminated

Today's Extremes

State Highs State Lows

Community

WunderPhotos

Upload Photos

1,844,138 photos uploaded!

WunderBlogs® & News

Nearby

Air Quality

  Air Quality AQ Index Pollutant
Not available.

Snow Depth

Station Depth Elevation

Earthquake Activity

City Distance Mag. Time & Date
Minimum magnitude displayed is 2.5.

Coastal Water Temperatures

Place Temperature

Stations

Nearby Weather Stations

Station Location Temp. Windchill Dew Point Humidity Wind Precip. Elev Updated Type